Arthur, North Dakota
Current Conditions -  °F | °C
As of 11:53 AM on Friday 31 Oct 2014 (Local Time) from KFAR Reporting Station
Clear Clear  
Wind Chill: 26°   Ceiling: Unl
Heat Index: 32°   Visibility: 10mi
Dew Point: 22°   Wind: 7mph
Humidity: 66%   Direction: 130°SE
Pressure: 30.59"   Gusts: NA
Location:  47.1°N, 97.22°W
Report Text: KFAR 311653Z 13006KT 10SM CLR 00/M06 A3059 RMK AO2 SLP374 T00001056
Loading
Personal Weather Stations






























Interactive Weather Map New forecast layout! Learn more

10-Day Weather Forecast

Advertisements
Track Severe Weather on mobile